Time;durP1;ratioP1;P1;durP2;ratioP2;P2;SDS_P1;SDS_P2;PMS_P1;PMS_P2;Temp;Humidity;BMP_temperature;BMP_pressure;BME280_temperature;BME280_humidity;BME280_pressure;Samples;Min_cycle;Max_cycle;Signal;HPM_P1;HPM_P2
2022/11/04 00:01:28;;;;;;;4.00;3.80;;;;;;;9.68;100.00;99893.59;6011375;23;20407;-71
2022/11/04 00:03:57;;;;;;;4.03;3.83;;;;;;;9.68;100.00;99884.84;6040248;23;20030;-71
2022/11/04 00:06:24;;;;;;;4.35;3.97;;;;;;;9.71;100.00;99889.91;6068457;23;20100;-71
2022/11/04 00:08:54;;;;;;;3.92;3.72;;;;;;;9.39;100.00;99846.41;6047000;23;20187;-72
2022/11/04 00:14:08;;;;;;;4.63;4.40;;;;;;;9.53;100.00;99866.53;6037444;23;20049;-72
2022/11/04 00:19:19;;;;;;;4.35;4.15;;;;;;;8.88;100.00;99756.19;6036807;23;20019;-72
2022/11/04 00:29:56;;;;;;;5.40;4.38;;;;;;;9.67;100.00;99939.03;6040589;23;20407;-72
2022/11/04 00:35:08;;;;;;;4.20;4.00;;;;;;;9.57;100.00;99936.13;6042693;23;20023;-71
2022/11/04 00:37:43;;;;;;;4.28;4.07;;;;;;;9.56;100.00;99934.47;6070319;23;20224;-71
2022/11/04 00:40:12;;;;;;;4.20;4.00;;;;;;;9.28;100.00;99910.84;6037954;23;20015;-71
2022/11/04 00:42:39;;;;;;;4.15;3.95;;;;;;;9.16;100.00;99874.00;6032041;23;20015;-71
2022/11/04 00:45:06;;;;;;;4.15;3.95;;;;;;;9.32;100.00;99888.78;6037802;23;20249;-71
2022/11/04 00:47:32;;;;;;;4.35;4.15;;;;;;;9.31;100.00;99892.34;6033252;23;20254;-72
2022/11/04 00:49:58;;;;;;;4.57;4.20;;;;;;;9.61;100.00;99946.44;6002407;23;20034;-71
2022/11/04 00:52:25;;;;;;;4.30;4.10;;;;;;;9.68;100.00;99952.97;6063955;23;20050;-71
2022/11/04 00:54:51;;;;;;;4.30;4.10;;;;;;;9.76;100.00;99943.72;6001740;23;20030;-71
2022/11/04 00:57:18;;;;;;;4.55;4.28;;;;;;;9.43;100.00;99894.22;6032350;23;20027;-72
2022/11/04 00:59:44;;;;;;;4.47;4.20;;;;;;;9.82;100.00;99944.28;6011831;23;20227;-71
2022/11/04 01:02:12;;;;;;;4.82;4.53;;;;;;;9.53;100.00;99921.53;6035548;23;20089;-71
2022/11/04 01:04:39;;;;;;;4.63;4.43;;;;;;;9.81;100.00;99963.56;6065432;23;20018;-71
2022/11/04 01:07:05;;;;;;;4.65;4.40;;;;;;;9.77;100.00;99968.16;6044111;23;20518;-71
2022/11/04 01:09:32;;;;;;;4.30;4.10;;;;;;;9.74;100.00;99970.94;6071738;23;20038;-72
2022/11/04 01:11:58;;;;;;;4.45;4.22;;;;;;;9.72;100.00;99978.06;6039490;23;20011;-71
2022/11/04 01:14:24;;;;;;;4.40;4.20;;;;;;;9.71;100.00;99979.00;6066688;23;20641;-71
2022/11/04 01:16:51;;;;;;;4.60;4.30;;;;;;;9.71;100.00;100006.03;6036240;23;20022;-71
2022/11/04 01:19:17;;;;;;;4.70;4.40;;;;;;;9.70;100.00;99990.41;6034735;23;20031;-71
2022/11/04 01:21:44;;;;;;;3.95;3.75;;;;;;;9.61;100.00;99977.88;6046730;23;20030;-71
2022/11/04 01:24:11;;;;;;;4.28;4.07;;;;;;;9.72;100.00;99991.16;6035054;23;20270;-71
2022/11/04 01:26:37;;;;;;;4.13;3.92;;;;;;;9.68;100.00;99992.28;6077343;23;20019;-72
2022/11/04 01:29:03;;;;;;;4.82;4.38;;;;;;;9.56;100.00;99986.84;6051908;23;20118;-72
2022/11/04 01:31:30;;;;;;;4.28;4.00;;;;;;;9.54;100.00;99993.09;6085527;23;20018;-72
2022/11/04 01:33:58;;;;;;;5.53;4.40;;;;;;;9.25;100.00;99955.53;6042861;23;20027;-72
2022/11/04 01:36:25;;;;;;;4.32;4.13;;;;;;;9.37;100.00;99994.94;6050151;23;20195;-72
2022/11/04 01:38:54;;;;;;;4.72;4.43;;;;;;;8.70;100.00;99904.59;6040639;23;20059;-72
2022/11/04 01:41:24;;;;;;;4.40;4.18;;;;;;;8.95;100.00;99962.44;6010940;23;20034;-72
2022/11/04 01:43:55;;;;;;;4.38;4.18;;;;;;;9.13;100.00;100001.59;6038709;23;20030;-72
2022/11/04 01:46:36;;;;;;;4.13;3.92;;;;;;;8.75;100.00;99967.97;6047942;23;20027;-72
2022/11/04 01:49:18;;;;;;;4.10;3.90;;;;;;;8.51;100.00;99933.59;6075522;23;20018;-72
2022/11/04 01:51:47;;;;;;;4.45;4.10;;;;;;;8.74;100.00;99967.16;6051002;23;20030;-72
2022/11/04 01:54:14;;;;;;;4.10;3.90;;;;;;;8.64;100.00;99972.97;6051005;23;20525;-72
2022/11/04 01:56:42;;;;;;;3.92;3.78;;;;;;;8.50;100.00;99951.06;6074318;23;20076;-72
2022/11/04 01:59:17;;;;;;;4.10;3.90;;;;;;;8.63;100.00;99985.19;6061798;23;20524;-72
2022/11/04 02:01:43;;;;;;;3.70;3.60;;;;;;;8.27;100.00;99940.97;6044413;23;20093;-72
2022/11/04 02:04:25;;;;;;;4.20;4.00;;;;;;;8.60;100.00;99993.25;6051153;23;20030;-72
2022/11/04 02:07:01;;;;;;;4.00;3.80;;;;;;;8.33;100.00;99949.31;6048776;23;20066;-72
2022/11/04 02:09:30;;;;;;;4.07;3.88;;;;;;;8.64;100.00;99997.38;6024894;23;20022;-72
2022/11/04 02:14:45;;;;;;;4.00;3.80;;;;;;;8.55;100.00;99983.00;6048316;23;20030;-72
2022/11/04 02:17:17;;;;;;;3.83;3.65;;;;;;;8.51;100.00;99986.72;6083838;23;20022;-72
2022/11/04 02:19:56;;;;;;;3.65;3.45;;;;;;;8.46;100.00;99982.66;6047171;23;20230;-72
2022/11/04 02:22:50;;;;;;;4.10;3.90;;;;;;;8.37;100.00;99984.00;6078361;23;20169;-72
2022/11/04 02:25:19;;;;;;;4.13;3.92;;;;;;;8.31;100.00;99981.72;6012501;23;20019;-72
2022/11/04 02:28:12;;;;;;;4.43;3.70;;;;;;;8.26;100.00;99973.25;6071626;23;20156;-72
2022/11/04 02:30:51;;;;;;;6.63;4.13;;;;;;;8.16;100.00;99959.88;6049800;23;20025;-72
2022/11/04 02:33:31;;;;;;;4.10;3.90;;;;;;;7.85;100.00;99921.47;6082418;23;20009;-71
2022/11/04 02:36:19;;;;;;;3.75;3.63;;;;;;;7.23;100.00;99824.66;6047645;23;20030;-70
2022/11/04 02:39:21;;;;;;;3.85;3.67;;;;;;;8.03;100.00;99966.69;6070359;23;20018;-71
2022/11/04 02:41:55;;;;;;;4.10;3.90;;;;;;;8.04;100.00;99960.50;5993440;23;20037;-72
2022/11/04 02:44:36;;;;;;;5.55;5.35;;;;;;;7.96;100.00;99953.09;6045251;23;20030;-71
2022/11/04 02:47:03;;;;;;;4.82;3.90;;;;;;;7.92;100.00;99962.88;6047737;23;20122;-71
2022/11/04 02:49:39;;;;;;;4.18;3.97;;;;;;;7.57;100.00;99904.63;6075081;23;20088;-71
2022/11/04 02:52:08;;;;;;;4.20;4.00;;;;;;;7.88;100.00;99950.06;6034961;23;20023;-71
2022/11/04 02:54:53;;;;;;;4.40;4.10;;;;;;;7.60;100.00;99920.16;6046810;23;20040;-72
2022/11/04 02:57:24;;;;;;;4.00;3.80;;;;;;;7.05;100.00;99832.50;6076289;23;20092;-71
2022/11/04 02:59:57;;;;;;;4.00;3.80;;;;;;;7.81;100.00;99959.97;6038371;23;20026;-71
2022/11/04 03:03:03;;;;;;;4.05;3.75;;;;;;;7.79;100.00;99956.59;6049445;23;20513;-71
2022/11/04 03:05:34;;;;;;;3.90;3.70;;;;;;;7.73;100.00;99959.53;5994771;23;20402;-71
2022/11/04 03:08:05;;;;;;;9.23;4.95;;;;;;;7.71;100.00;99967.44;6011693;23;20469;-71
2022/11/04 03:10:40;;;;;;;5.50;4.93;;;;;;;7.65;100.00;99969.53;6074143;23;20458;-71
2022/11/04 03:13:13;;;;;;;4.05;3.85;;;;;;;7.56;100.00;99963.84;6034715;23;20019;-72
2022/11/04 03:15:46;;;;;;;4.22;4.03;;;;;;;7.21;100.00;99916.06;6038052;23;20061;-71
2022/11/04 03:18:38;;;;;;;4.18;3.97;;;;;;;7.44;100.00;99955.78;6035243;23;20076;-71
2022/11/04 03:21:08;;;;;;;3.70;3.60;;;;;;;7.38;100.00;99956.97;6004538;23;20030;-70
2022/11/04 03:23:35;;;;;;;3.90;3.70;;;;;;;7.32;100.00;99952.06;6044666;23;20072;-71
2022/11/04 03:26:11;;;;;;;3.97;3.78;;;;;;;7.13;100.00;99936.47;6075474;23;20026;-71
2022/11/04 03:28:46;;;;;;;3.95;3.75;;;;;;;7.22;100.00;99953.44;6044814;23;20027;-71
2022/11/04 03:31:26;;;;;;;4.03;3.83;;;;;;;6.92;100.00;99902.72;6072818;23;20010;-71
2022/11/04 03:33:54;;;;;;;3.83;3.67;;;;;;;7.15;100.00;99938.09;6050927;23;20023;-71
2022/11/04 03:36:22;;;;;;;4.05;3.85;;;;;;;6.28;100.00;99789.44;6050751;23;20072;-71
2022/11/04 03:38:50;;;;;;;3.88;3.67;;;;;;;6.92;100.00;99891.44;6069728;23;20068;-72
2022/11/04 03:41:26;;;;;;;4.00;3.80;;;;;;;7.24;100.00;99944.63;6041202;23;20066;-71
2022/11/04 03:43:52;;;;;;;3.70;3.50;;;;;;;6.97;100.00;99911.16;6071973;23;20218;-71
2022/11/04 03:46:21;;;;;;;4.22;4.03;;;;;;;7.16;100.00;99929.34;6043852;23;20080;-72
2022/11/04 03:48:51;;;;;;;3.90;3.70;;;;;;;7.34;100.00;99956.28;6068434;23;20084;-71
2022/11/04 03:51:17;;;;;;;3.97;3.78;;;;;;;7.34;100.00;99961.50;6043761;23;20030;-71
2022/11/04 03:53:44;;;;;;;3.50;3.40;;;;;;;7.33;100.00;99965.03;6074144;23;20033;-71
2022/11/04 03:56:10;;;;;;;4.13;3.90;;;;;;;7.33;100.00;99964.19;6018093;23;20501;-71
2022/11/04 03:59:03;;;;;;;4.05;3.85;;;;;;;7.28;100.00;99960.97;6073871;23;20260;-72
2022/11/04 04:01:45;;;;;;;4.63;3.95;;;;;;;7.23;100.00;99952.53;6008302;23;20066;-72
2022/11/04 04:04:29;;;;;;;4.22;4.03;;;;;;;7.15;100.00;99960.72;6041392;23;20025;-71
2022/11/04 04:07:20;;;;;;;3.80;3.60;;;;;;;7.08;100.00;99947.16;6000788;23;20035;-71
2022/11/04 04:09:54;;;;;;;3.50;3.35;;;;;;;6.82;100.00;99930.19;6068860;23;20042;-71
2022/11/04 04:12:39;;;;;;;3.50;3.40;;;;;;;6.96;100.00;99951.22;6008794;23;20026;-72
2022/11/04 04:15:21;;;;;;;3.53;3.42;;;;;;;7.01;100.00;99953.59;6069364;23;20236;-71
2022/11/04 04:18:11;;;;;;;3.60;3.50;;;;;;;7.04;100.00;99948.22;6044575;23;20035;-71
2022/11/04 04:20:39;;;;;;;4.05;3.75;;;;;;;7.09;100.00;99956.66;6047042;23;20454;-71
2022/11/04 04:28:51;;;;;;;4.13;3.80;;;;;;;7.16;100.00;99965.88;6074049;23;20032;-72
2022/11/04 04:31:48;;;;;;;4.22;3.67;;;;;;;7.11;100.00;99957.41;6046344;23;20150;-72
2022/11/04 04:34:07;;;;;;;4.05;3.85;;;;;;;7.11;100.00;99960.03;6074868;23;20106;-71
2022/11/04 04:36:42;;;;;;;4.00;3.70;;;;;;;7.12;100.00;99960.91;6037236;23;20157;-72
2022/11/04 04:45:03;;;;;;;3.70;3.50;;;;;;;6.55;100.00;99908.88;6046925;23;20022;-71
2022/11/04 04:47:43;;;;;;;3.90;3.70;;;;;;;6.49;100.00;99917.00;6032267;23;20034;-71
2022/11/04 04:50:13;;;;;;;4.40;3.63;;;;;;;6.85;100.00;99971.75;6072248;23;20022;-72
2022/11/04 04:52:43;;;;;;;3.50;3.40;;;;;;;6.75;100.00;99971.34;6049698;23;20106;-72
2022/11/04 04:55:09;;;;;;;4.10;3.90;;;;;;;6.49;100.00;99956.09;6044818;23;20022;-72
2022/11/04 04:57:36;;;;;;;4.15;3.70;;;;;;;6.67;100.00;99986.50;6079957;23;20013;-71
2022/11/04 05:00:05;;;;;;;3.90;3.67;;;;;;;6.59;100.00;99980.81;6038426;23;20003;-71
2022/11/04 05:02:31;;;;;;;3.50;3.40;;;;;;;6.37;100.00;99961.00;6072991;23;20014;-72
2022/11/04 05:04:58;;;;;;;5.28;4.00;;;;;;;6.47;100.00;99984.00;6046987;23;20105;-72
2022/11/04 05:07:25;;;;;;;3.60;3.50;;;;;;;6.28;100.00;99958.81;6019693;23;20522;-71
2022/11/04 05:09:51;;;;;;;3.40;3.30;;;;;;;6.38;100.00;99978.31;6036298;23;20047;-71
2022/11/04 05:12:17;;;;;;;4.22;3.83;;;;;;;6.32;100.00;99986.41;6040491;23;20102;-71
2022/11/04 05:14:44;;;;;;;3.70;3.55;;;;;;;6.02;100.00;99943.53;6041084;23;20102;-71
2022/11/04 05:17:10;;;;;;;3.63;3.53;;;;;;;6.14;100.00;99967.25;6074425;23;20019;-71
2022/11/04 05:19:36;;;;;;;3.78;3.65;;;;;;;5.98;100.00;99954.06;6050480;23;20023;-71
2022/11/04 05:22:03;;;;;;;4.00;3.75;;;;;;;6.17;100.00;99987.09;6068945;23;20085;-71
2022/11/04 05:24:30;;;;;;;3.53;3.42;;;;;;;5.77;100.00;99928.97;6048807;23;20580;-71
2022/11/04 05:26:56;;;;;;;3.88;3.60;;;;;;;6.01;100.00;100005.19;6075643;23;20026;-72
2022/11/04 05:29:22;;;;;;;4.28;3.55;;;;;;;5.65;100.00;99921.69;6010990;23;20086;-71
2022/11/04 05:31:49;;;;;;;4.20;4.00;;;;;;;5.99;100.00;99981.81;6075512;23;20075;-72
2022/11/04 05:34:15;;;;;;;4.20;4.00;;;;;;;5.94;100.00;99986.34;6007326;23;20070;-72
2022/11/04 05:36:42;;;;;;;3.63;3.47;;;;;;;5.91;100.00;99985.63;6075237;23;20480;-71
2022/11/04 05:39:12;;;;;;;3.78;3.65;;;;;;;5.67;100.00;99958.91;6007869;23;20027;-72
2022/11/04 05:41:38;;;;;;;3.60;3.50;;;;;;;5.62;100.00;99961.72;6062497;23;20021;-72
2022/11/04 05:44:07;;;;;;;3.83;3.63;;;;;;;5.39;100.00;99937.56;6047293;23;20031;-71
2022/11/04 05:46:33;;;;;;;3.88;3.67;;;;;;;5.78;100.00;99990.53;6064942;23;20462;-72
2022/11/04 05:49:00;;;;;;;4.00;3.80;;;;;;;5.77;100.00;99994.91;6043887;23;20242;-72
2022/11/04 05:51:27;;;;;;;3.40;3.30;;;;;;;5.74;100.00;99996.81;6066763;23;20026;-72
2022/11/04 05:53:54;;;;;;;3.78;3.60;;;;;;;5.40;100.00;99947.03;6049913;23;20027;-72
2022/11/04 05:56:20;;;;;;;3.25;3.15;;;;;;;5.30;100.00;99955.31;6015222;23;20051;-72
2022/11/04 05:58:46;;;;;;;3.38;3.28;;;;;;;5.34;100.00;99960.31;5995172;23;20380;-73
2022/11/04 06:01:27;;;;;;;3.50;3.40;;;;;;;5.53;100.00;100002.03;6024597;23;20031;-72
2022/11/04 06:03:55;;;;;;;3.50;3.40;;;;;;;5.46;100.00;100005.78;6082609;23;20054;-70
2022/11/04 06:06:23;;;;;;;4.03;3.83;;;;;;;4.59;100.00;99886.28;6039901;23;20251;-70
2022/11/04 06:08:50;;;;;;;3.55;3.45;;;;;;;4.98;100.00;99968.72;6083001;23;20027;-72
2022/11/04 06:11:18;;;;;;;4.07;3.60;;;;;;;5.14;100.00;100017.53;6046472;23;20023;-70
2022/11/04 06:13:44;;;;;;;3.47;3.38;;;;;;;5.03;100.00;100017.09;6041922;23;20022;-72
2022/11/04 06:16:11;;;;;;;3.67;3.58;;;;;;;4.96;100.00;100021.72;6080697;23;20037;-72
2022/11/04 06:18:37;;;;;;;3.50;3.40;;;;;;;3.44;100.00;99780.88;6051038;23;20093;-71
2022/11/04 06:21:13;;;;;;;3.92;3.72;;;;;;;4.46;100.00;99955.22;6071748;23;20035;-70
2022/11/04 06:23:41;;;;;;;3.85;3.67;;;;;;;4.92;100.00;100036.59;6043438;23;20235;-70
2022/11/04 06:26:09;;;;;;;3.60;3.50;;;;;;;4.83;100.00;100012.69;6075473;23;20022;-70
2022/11/04 06:28:36;;;;;;;3.70;3.60;;;;;;;4.57;100.00;99957.38;6053307;23;20073;-71
2022/11/04 06:31:05;;;;;;;4.13;3.72;;;;;;;5.25;100.00;100049.16;6041340;23;20035;-71
2022/11/04 06:33:32;;;;;;;4.13;3.83;;;;;;;4.99;100.00;99996.44;6080701;23;20595;-71
2022/11/04 06:36:04;;;;;;;4.35;4.15;;;;;;;5.16;100.00;100019.16;6009425;23;20038;-71
2022/11/04 06:38:33;;;;;;;3.70;3.50;;;;;;;5.16;100.00;100019.16;6083244;23;20429;-71
2022/11/04 06:40:59;;;;;;;3.80;3.60;;;;;;;5.50;100.00;100076.78;6007504;23;20034;-70
2022/11/04 06:43:26;;;;;;;3.78;3.58;;;;;;;5.46;100.00;100073.44;6084074;23;20190;-70
2022/11/04 06:45:59;;;;;;;4.07;3.88;;;;;;;5.28;100.00;100035.19;6007427;23;20254;-71
2022/11/04 06:48:26;;;;;;;3.40;3.30;;;;;;;5.66;100.00;100087.41;6042799;23;20658;-71
2022/11/04 06:50:53;;;;;;;3.40;3.30;;;;;;;5.83;100.00;100105.75;6050850;23;20038;-70
2022/11/04 06:53:19;;;;;;;3.50;3.40;;;;;;;5.92;100.00;100096.72;6003434;23;20033;-70
2022/11/04 06:55:45;;;;;;;3.58;3.47;;;;;;;5.62;100.00;100031.19;6043179;23;20039;-70
2022/11/04 06:58:56;;;;;;;3.95;3.75;;;;;;;6.12;100.00;100099.34;6049661;23;20577;-69
2022/11/04 07:01:29;;;;;;;4.25;4.05;;;;;;;6.11;100.00;100082.00;5992461;23;20011;-72
2022/11/04 07:03:57;;;;;;;5.93;5.40;;;;;;;6.30;100.00;100102.91;6040300;23;20043;-70
2022/11/04 07:06:25;;;;;;;3.45;3.35;;;;;;;6.02;100.00;100043.34;6073254;23;20050;-70
2022/11/04 07:08:52;;;;;;;4.20;3.80;;;;;;;6.55;100.00;100099.19;6052568;23;20035;-71
2022/11/04 07:11:20;;;;;;;5.10;4.15;;;;;;;6.18;100.00;100036.53;6027656;23;20015;-71
2022/11/04 07:13:48;;;;;;;4.15;3.95;;;;;;;6.29;100.00;100030.00;6067374;23;20038;-71
2022/11/04 07:16:15;;;;;;;4.68;4.38;;;;;;;6.84;100.00;100108.31;6049246;23;20156;-71
2022/11/04 07:18:41;;;;;;;4.35;4.07;;;;;;;6.72;100.00;100068.00;6075921;23;20055;-71
2022/11/04 07:21:09;;;;;;;5.53;4.40;;;;;;;7.01;100.00;100110.13;6042556;23;20404;-69
2022/11/04 07:23:36;;;;;;;4.28;4.07;;;;;;;7.05;100.00;100113.44;6070686;23;20030;-69
2022/11/04 07:26:05;;;;;;;3.97;3.78;;;;;;;7.13;100.00;100116.53;6036357;23;20027;-69
2022/11/04 07:28:32;;;;;;;5.35;4.85;;;;;;;7.02;100.00;100090.13;6039302;23;20014;-71
2022/11/04 07:31:00;;;;;;;4.70;4.40;;;;;;;7.26;100.00;100122.84;6006832;23;20026;-71
2022/11/04 07:33:27;;;;;;;5.43;5.13;;;;;;;7.31;100.00;100136.53;6068727;23;20481;-71
2022/11/04 07:35:53;;;;;;;3.95;3.75;;;;;;;7.15;100.00;100099.88;6041428;23;20030;-71
2022/11/04 07:38:24;;;;;;;4.35;4.05;;;;;;;6.86;100.00;100049.09;6081964;23;20473;-71
2022/11/04 07:40:50;;;;;;;5.35;4.25;;;;;;;7.41;100.00;100129.09;6052356;23;20084;-71
2022/11/04 07:43:17;;;;;;;6.60;4.97;;;;;;;7.35;100.00;100129.41;6049355;23;20069;-71
2022/11/04 07:45:43;;;;;;;4.00;3.80;;;;;;;7.42;100.00;100141.25;6048870;23;20105;-71
2022/11/04 07:48:10;;;;;;;4.10;3.90;;;;;;;7.16;100.00;100101.56;6048902;23;20031;-71
2022/11/04 07:50:39;;;;;;;4.30;4.10;;;;;;;7.15;100.00;100096.41;6049656;23;20018;-70
2022/11/04 07:53:06;;;;;;;3.60;3.50;;;;;;;7.47;100.00;100152.28;6054241;23;20038;-71
2022/11/04 07:55:35;;;;;;;5.97;4.30;;;;;;;7.36;100.00;100147.59;6055207;23;20720;-71
2022/11/04 07:58:08;;;;;;;4.25;3.95;;;;;;;7.53;100.00;100161.59;6049243;23;20027;-71
2022/11/04 08:00:35;;;;;;;3.75;3.55;;;;;;;7.44;100.00;100149.84;6078076;23;20134;-71
2022/11/04 08:03:01;;;;;;;4.57;4.25;;;;;;;7.15;100.00;100115.53;6042279;23;20015;-71
2022/11/04 08:05:28;;;;;;;4.20;4.00;;;;;;;7.53;100.00;100153.78;6071889;23;20363;-71
2022/11/04 08:07:56;;;;;;;4.55;4.25;;;;;;;7.64;100.00;100169.78;6051490;23;20077;-72
2022/11/04 08:10:22;;;;;;;3.90;3.70;;;;;;;7.69;100.00;100180.00;6046372;23;20053;-71
2022/11/04 08:12:50;;;;;;;4.50;4.25;;;;;;;7.73;100.00;100169.31;6072759;23;20403;-71
2022/11/04 08:15:17;;;;;;;4.10;3.90;;;;;;;7.91;100.00;100172.78;6040530;23;20018;-71
2022/11/04 08:17:43;;;;;;;3.90;3.75;;;;;;;8.06;100.00;100172.94;6037138;23;20465;-71
2022/11/04 08:20:10;;;;;;;4.35;4.15;;;;;;;8.15;100.00;100165.47;6037518;23;20091;-72
2022/11/04 08:22:37;;;;;;;4.65;4.43;;;;;;;7.76;100.00;100082.97;6059251;23;20089;-70
2022/11/04 08:25:05;;;;;;;4.07;3.88;;;;;;;8.16;100.00;100141.06;6016907;23;20018;-69
2022/11/04 08:27:33;;;;;;;3.65;3.55;;;;;;;8.10;100.00;100127.47;6044267;23;20019;-73
2022/11/04 08:29:59;;;;;;;4.65;4.32;;;;;;;8.41;100.00;100179.03;6040194;23;20077;-72
2022/11/04 08:32:25;;;;;;;4.05;3.85;;;;;;;7.93;100.00;100097.78;6073085;23;20078;-71
2022/11/04 08:34:52;;;;;;;4.05;3.83;;;;;;;8.26;100.00;100137.94;6042972;23;20099;-71
2022/11/04 08:37:18;;;;;;;5.50;4.47;;;;;;;8.36;100.00;100147.88;6072593;23;20030;-71
2022/11/04 08:39:44;;;;;;;4.82;4.55;;;;;;;8.59;100.00;100167.59;6038739;23;20081;-72
2022/11/04 08:42:11;;;;;;;11.23;4.28;;;;;;;8.63;100.00;100170.06;6062170;23;20090;-71
2022/11/04 08:44:38;;;;;;;4.28;4.07;;;;;;;8.42;100.00;100149.34;6040256;23;20038;-71
2022/11/04 08:47:05;;;;;;;4.20;4.00;;;;;;;8.57;100.00;100174.69;6016852;23;20023;-71
2022/11/04 08:49:35;;;;;;;4.38;4.18;;;;;;;8.57;100.00;100171.22;6039944;23;20167;-72
2022/11/04 08:52:02;;;;;;;4.78;4.47;;;;;;;8.62;100.00;100169.25;6045899;23;20022;-72
2022/11/04 08:54:29;;;;;;;4.25;4.05;;;;;;;8.61;100.00;100162.31;6017476;23;20441;-72
2022/11/04 08:56:55;;;;;;;4.47;4.07;;;;;;;7.37;100.00;99931.78;6046612;23;20026;-72
2022/11/04 08:59:22;;;;;;;4.75;4.38;;;;;;;8.97;100.00;100171.72;6035645;23;20051;-72
2022/11/04 09:01:48;;;;;;;4.32;4.13;;;;;;;9.06;100.00;100157.28;6070062;23;20014;-71
2022/11/04 09:04:14;;;;;;;5.72;5.43;;;;;;;9.18;100.00;100167.97;6002435;23;20038;-72
2022/11/04 09:06:43;;;;;;;4.50;4.30;;;;;;;9.16;100.00;100161.09;6039830;23;20028;-67
2022/11/04 09:09:13;;;;;;;4.85;4.55;;;;;;;9.43;100.00;100179.69;6041162;23;20070;-70
2022/11/04 09:11:41;;;;;;;4.72;4.35;;;;;;;9.56;100.00;100178.09;6063321;23;20366;-67
2022/11/04 09:14:08;;;;;;;4.82;4.57;;;;;;;9.74;100.00;100177.94;6042086;23;20014;-69
2022/11/04 09:16:37;;;;;;;4.07;3.88;;;;;;;9.84;100.00;100178.25;6046563;23;20014;-67
2022/11/04 09:19:03;;;;;;;4.78;4.47;;;;;;;9.72;100.00;100164.09;6031037;23;20416;-67
2022/11/04 09:21:30;;;;;;;4.68;4.28;;;;;;;9.78;100.00;100166.34;6011084;23;20071;-67
2022/11/04 09:23:56;;;;;;;4.55;4.32;;;;;;;9.84;100.00;100181.72;6043250;23;20565;-68
2022/11/04 09:26:24;;;;;;;4.93;4.63;;;;;;;9.81;100.00;100189.78;6040359;23;20018;-69
2022/11/04 09:28:55;;;;;;;4.90;4.60;;;;;;;9.77;100.00;100189.09;6066219;23;20026;-68
2022/11/04 09:31:22;;;;;;;5.25;4.85;;;;;;;9.95;100.00;100191.59;6033888;23;20650;-68
2022/11/04 09:33:49;;;;;;;5.50;5.07;;;;;;;10.02;100.00;100195.53;6070197;23;20035;-70
2022/11/04 09:36:16;;;;;;;5.10;4.70;;;;;;;9.42;100.00;100052.31;6010532;23;20038;-69
2022/11/04 09:38:43;;;;;;;6.97;4.45;;;;;;;10.52;100.00;100167.31;6079140;23;20500;-72
2022/11/04 09:41:47;;;;;;;4.90;4.60;;;;;;;10.94;100.00;100184.84;6012188;23;20018;-71
2022/11/04 09:44:55;;;;;;;4.97;4.60;;;;;;;11.35;100.00;100191.91;6067548;23;20050;-76
2022/11/04 09:47:44;;;;;;;6.03;4.75;;;;;;;11.67;100.00;100206.56;6009886;23;20018;-73
2022/11/04 09:50:21;;;;;;;5.40;5.10;;;;;;;11.45;100.00;100136.97;6064153;23;20077;-70
2022/11/04 09:52:54;;;;;;;5.00;4.70;;;;;;;12.15;100.00;100193.78;6044565;23;20050;-71
2022/11/04 09:55:57;;;;;;;4.57;4.28;;;;;;;12.32;100.00;100234.75;6031983;23;20246;-70
2022/11/04 09:58:23;;;;;;;22.50;5.30;;;;;;;12.35;100.00;100250.34;6065409;23;20034;-71
2022/11/04 10:01:02;;;;;;;4.75;4.55;;;;;;;12.45;100.00;100251.41;6033552;23;20081;-71
2022/11/04 10:03:47;;;;;;;4.75;4.55;;;;;;;12.03;100.00;100177.03;6025427;23;20018;-71
2022/11/04 10:06:29;;;;;;;5.80;4.95;;;;;;;11.97;100.00;100146.72;6046206;23;20037;-71
2022/11/04 10:09:21;;;;;;;5.27;4.87;;;;;;;12.31;100.00;100247.06;6070330;23;20126;-71
2022/11/04 10:11:51;;;;;;;5.30;5.00;;;;;;;12.26;100.00;100251.78;6009645;23;20395;-72
2022/11/04 10:14:29;;;;;;;5.00;4.70;;;;;;;12.25;100.00;100243.97;6048818;23;20041;-71
2022/11/04 10:17:39;;;;;;;5.13;4.72;;;;;;;12.26;100.00;100257.03;6040557;23;20011;-71
2022/11/04 10:20:27;;;;;;;5.20;4.90;;;;;;;12.18;100.00;100269.84;5970324;23;20016;-71
2022/11/04 10:23:01;;;;;;;5.20;4.90;;;;;;;11.74;100.00;100213.09;6038062;23;20034;-71
2022/11/04 10:25:42;;;;;;;6.95;5.18;;;;;;;12.05;100.00;100259.31;6030759;23;20112;-71
2022/11/04 10:28:14;;;;;;;5.78;5.28;;;;;;;11.76;100.00;100209.41;6026634;23;20026;-72
2022/11/04 10:30:43;;;;;;;4.82;4.63;;;;;;;11.66;100.00;100200.44;6023417;23;20569;-70
2022/11/04 10:33:33;;;;;;;6.75;5.13;;;;;;;12.10;100.00;100277.41;6026042;23;20038;-66
2022/11/04 10:36:06;;;;;;;5.70;5.40;;;;;;;11.95;100.00;100264.31;6040262;23;20025;-66
2022/11/04 10:38:49;;;;;;;6.53;4.43;;;;;;;11.89;100.00;100264.72;6068362;23;20096;-71
2022/11/04 10:41:34;;;;;;;5.10;4.40;;;;;;;11.98;100.00;100279.88;6042941;23;20450;-69
2022/11/04 10:44:02;;;;;;;5.57;5.20;;;;;;;11.95;100.00;100287.97;6076756;23;20031;-72
2022/11/04 10:46:43;;;;;;;7.57;4.40;;;;;;;11.54;100.00;100212.56;6008840;23;20031;-75
2022/11/04 10:49:24;;;;;;;4.80;4.60;;;;;;;11.91;100.00;100288.28;6081087;23;20047;-70
2022/11/04 10:51:52;;;;;;;5.38;4.97;;;;;;;11.77;100.00;100294.41;6044655;23;20085;-69
2022/11/04 10:54:19;;;;;;;4.43;4.22;;;;;;;11.69;100.00;100292.25;6085116;23;20527;-76
2022/11/04 10:56:51;;;;;;;5.10;4.80;;;;;;;11.77;100.00;100297.88;6050783;23;20043;-70
2022/11/04 10:59:25;;;;;;;4.72;4.43;;;;;;;11.37;100.00;100241.72;6088923;23;20029;-70
2022/11/04 11:01:54;;;;;;;7.70;5.38;;;;;;;11.56;100.00;100273.75;6046814;23;20014;-70
2022/11/04 11:04:33;;;;;;;4.80;4.53;;;;;;;11.50;100.00;100291.72;6039957;23;20030;-70
2022/11/04 11:07:05;;;;;;;4.80;4.50;;;;;;;11.57;100.00;100327.19;6047144;23;20031;-70
2022/11/04 11:09:39;;;;;;;5.10;4.80;;;;;;;11.43;100.00;100316.69;6045846;23;20087;-72
2022/11/04 11:12:12;;;;;;;5.60;5.22;;;;;;;11.47;100.00;100315.56;6068445;23;20029;-69
2022/11/04 11:14:58;;;;;;;5.78;5.45;;;;;;;11.41;100.00;100298.41;6041952;23;20027;-77
2022/11/04 11:17:36;;;;;;;4.47;4.28;;;;;;;11.66;100.00;100316.09;6074062;23;20037;-75
2022/11/04 11:20:21;;;;;;;5.03;4.63;;;;;;;12.02;100.00;100322.63;6015445;23;20055;-72
2022/11/04 11:22:50;;;;;;;5.00;4.70;;;;;;;12.10;100.00;100327.38;6069219;23;20018;-73
2022/11/04 11:25:22;;;;;;;5.78;5.07;;;;;;;12.12;100.00;100336.03;6049048;23;20200;-73
2022/11/04 11:27:57;;;;;;;4.53;4.32;;;;;;;12.13;100.00;100340.34;6060985;23;20029;-75
2022/11/04 11:30:31;;;;;;;7.63;4.80;;;;;;;12.12;100.00;100355.25;6041298;23;20356;-72
2022/11/04 11:33:02;;;;;;;5.40;4.90;;;;;;;12.10;100.00;100341.38;6046951;23;20030;-74
2022/11/04 11:35:33;;;;;;;4.93;4.63;;;;;;;12.09;100.00;100355.47;6047743;23;20649;-72
2022/11/04 11:38:03;;;;;;;5.63;5.20;;;;;;;11.83;100.00;100308.94;6042686;23;20014;-75
2022/11/04 11:40:34;;;;;;;4.78;4.55;;;;;;;11.81;100.00;100321.31;6015914;23;20042;-74
2022/11/04 11:43:01;;;;;;;6.63;4.60;;;;;;;11.61;100.00;100286.63;6049638;23;20035;-73
2022/11/04 11:45:28;;;;;;;5.32;4.70;;;;;;;12.10;100.00;100354.53;6041488;23;20459;-73
2022/11/04 11:47:55;;;;;;;5.40;5.00;;;;;;;12.11;100.00;100353.59;6034374;23;20070;-72
2022/11/04 11:50:32;;;;;;;4.93;4.70;;;;;;;12.17;100.00;100373.41;6046405;23;20026;-75
2022/11/04 11:53:14;;;;;;;4.95;4.65;;;;;;;11.96;100.00;100323.84;6007737;23;20382;-76
2022/11/04 11:56:05;;;;;;;5.05;4.75;;;;;;;12.07;100.00;100357.38;6043402;23;20006;-76
2022/11/04 11:58:41;;;;;;;7.68;4.90;;;;;;;12.10;100.00;100365.03;6046345;23;20022;-71
2022/11/04 12:01:33;;;;;;;4.40;4.20;;;;;;;11.72;100.00;100309.59;6043165;23;20199;-71
2022/11/04 12:04:00;;;;;;;7.03;4.93;;;;;;;11.17;100.00;100246.44;6032307;23;20014;-69
2022/11/04 12:07:18;;;;;;;4.60;4.40;;;;;;;11.62;100.00;100295.34;6067810;23;20025;-71
2022/11/04 12:10:46;;;;;;;4.57;4.38;;;;;;;12.03;100.00;100366.41;6039175;23;20554;-71
2022/11/04 12:13:54;;;;;;;4.88;4.25;;;;;;;11.92;100.00;100366.22;6057134;23;20558;-72
2022/11/04 12:16:30;;;;;;;;;;;;;;;11.84;100.00;100371.94;5955114;23;20030;-71
2022/11/04 12:19:26;;;;;;;4.70;4.50;;;;;;;11.42;100.00;100315.00;6044376;23;19922;-72
2022/11/04 12:22:09;;;;;;;5.00;4.80;;;;;;;11.80;100.00;100375.69;6039480;23;20021;-71